createdAt,value
2022-11-01T00:06:16.245Z,44.10
2022-11-01T00:21:16.866Z,46.10
2022-11-01T00:36:16.488Z,44.50
2022-11-01T00:51:17.098Z,49.80
2022-11-01T01:06:17.170Z,47.30
2022-11-01T01:21:17.299Z,47.50
2022-11-01T01:36:17.390Z,47.20
2022-11-01T01:51:17.973Z,47.80
2022-11-01T02:06:18.111Z,45.70
2022-11-01T02:21:18.704Z,43.40
2022-11-01T02:36:18.762Z,40.00
2022-11-01T02:51:18.885Z,42.80
2022-11-01T03:06:19.526Z,40.70
2022-11-01T03:21:20.729Z,43.90
2022-11-01T03:36:20.701Z,45.70
2022-11-01T03:51:20.832Z,49.50
2022-11-01T04:06:21.421Z,55.30
2022-11-01T04:21:21.012Z,62.00
2022-11-01T04:36:21.106Z,68.90
2022-11-01T04:51:21.214Z,70.30
2022-11-01T05:06:21.886Z,69.40
2022-11-01T05:21:22.994Z,66.70
2022-11-01T05:36:23.580Z,62.90
2022-11-01T05:51:24.138Z,61.90
2022-11-01T06:06:24.710Z,60.10
2022-11-01T06:21:27.635Z,60.20
2022-11-01T06:36:29.485Z,57.10
2022-11-01T06:51:30.085Z,56.30
2022-11-01T07:06:29.703Z,53.00
2022-11-01T07:21:29.777Z,49.60
2022-11-01T07:36:29.893Z,48.80
2022-11-01T07:51:30.016Z,46.60
2022-11-01T08:06:30.147Z,44.70
2022-11-01T08:21:30.222Z,41.20
2022-11-01T08:36:31.359Z,36.00
2022-11-01T08:51:32.007Z,33.00
2022-11-01T09:06:36.216Z,29.50
2022-11-01T09:21:37.171Z,27.10
2022-11-01T09:36:37.254Z,23.70
2022-11-01T09:51:37.397Z,20.80
2022-11-01T10:06:37.462Z,19.80
2022-11-01T10:21:37.656Z,19.90
2022-11-01T10:51:38.273Z,18.30
2022-11-01T11:06:37.861Z,17.50
2022-11-01T11:21:37.985Z,16.10
2022-11-01T11:36:39.058Z,16.70
2022-11-01T11:51:40.681Z,14.50
2022-11-01T12:06:40.752Z,15.10
2022-11-01T12:21:41.363Z,16.00
2022-11-01T12:36:41.458Z,14.30
2022-11-01T12:51:41.559Z,10.60
2022-11-01T13:06:41.649Z,8.60
2022-11-01T13:21:42.248Z,7.70
2022-11-01T13:36:41.831Z,7.10
2022-11-01T13:51:42.473Z,6.70
2022-11-01T14:06:43.035Z,7.20
2022-11-01T14:21:43.157Z,6.90
2022-11-01T14:36:43.232Z,6.30
2022-11-01T14:51:43.849Z,6.50
2022-11-01T15:06:43.425Z,7.50
2022-11-01T15:21:47.037Z,7.60
2022-11-01T15:36:48.155Z,9.10
2022-11-01T15:51:48.731Z,8.50
2022-11-01T16:06:48.849Z,8.90
2022-11-01T16:21:48.492Z,8.70
2022-11-01T16:36:48.591Z,10.00
2022-11-01T16:51:49.099Z,9.00
2022-11-01T17:06:48.728Z,9.60
2022-11-01T17:21:48.837Z,9.50
2022-11-01T17:36:49.479Z,10.40
2022-11-01T17:51:54.373Z,9.70
2022-11-01T18:06:55.143Z,12.00
2022-11-01T18:21:54.770Z,11.50
2022-11-01T18:36:55.358Z,12.70
2022-11-01T18:51:55.508Z,24.60
2022-11-01T19:06:55.115Z,19.40
2022-11-01T19:21:55.209Z,16.10
2022-11-01T19:36:55.347Z,18.30
2022-11-01T19:51:55.467Z,15.80
2022-11-01T20:06:55.530Z,13.20
2022-11-01T20:21:55.719Z,14.20
2022-11-01T20:37:22.785Z,11.60
2022-11-01T20:52:26.095Z,13.70
2022-11-01T21:07:06.084Z,16.70
2022-11-01T21:22:06.337Z,17.00
2022-11-01T21:37:06.862Z,17.90
2022-11-01T21:52:07.501Z,19.20
2022-11-01T22:07:08.066Z,24.20
2022-11-01T22:22:09.132Z,22.00
2022-11-01T22:37:08.779Z,19.10
2022-11-01T22:52:09.354Z,18.10
2022-11-01T23:07:09.991Z,17.90
2022-11-01T23:22:10.112Z,18.10
2022-11-01T23:37:10.201Z,17.70
2022-11-01T23:52:10.315Z,18.50
